sensor_id;sensor_type;location;lat;lon;timestamp;pressure;altitude;pressure_sealevel;temperature;humidity
13235;BME280;6683;48.506;9.050;2023-09-30T00:02:53;98908.56;;;19.33;52.89
13235;BME280;6683;48.506;9.050;2023-09-30T00:05:55;98918.09;;;19.29;52.92
13235;BME280;6683;48.506;9.050;2023-09-30T00:08:58;98914.66;;;19.22;52.91
13235;BME280;6683;48.506;9.050;2023-09-30T00:12:00;98914.72;;;19.15;53.10
13235;BME280;6683;48.506;9.050;2023-09-30T00:15:03;98917.28;;;19.10;53.22
13235;BME280;6683;48.506;9.050;2023-09-30T00:18:07;98914.06;;;19.01;53.27
13235;BME280;6683;48.506;9.050;2023-09-30T00:21:10;98920.56;;;18.94;53.38
13235;BME280;6683;48.506;9.050;2023-09-30T00:24:12;98914.66;;;18.85;53.51
13235;BME280;6683;48.506;9.050;2023-09-30T00:27:14;98925.66;;;18.77;53.62
13235;BME280;6683;48.506;9.050;2023-09-30T00:30:16;98918.94;;;18.68;53.60
13235;BME280;6683;48.506;9.050;2023-09-30T00:33:20;98912.03;;;18.61;53.70
13235;BME280;6683;48.506;9.050;2023-09-30T00:36:22;98920.13;;;18.54;53.94
13235;BME280;6683;48.506;9.050;2023-09-30T00:39:24;98920.78;;;18.50;53.97
13235;BME280;6683;48.506;9.050;2023-09-30T00:42:30;98912.34;;;18.46;54.16
13235;BME280;6683;48.506;9.050;2023-09-30T00:45:32;98916.31;;;18.44;54.15
13235;BME280;6683;48.506;9.050;2023-09-30T00:48:37;98916.69;;;18.41;54.33
13235;BME280;6683;48.506;9.050;2023-09-30T00:51:40;98919.81;;;18.38;54.42
13235;BME280;6683;48.506;9.050;2023-09-30T00:54:42;98916.75;;;18.34;54.47
13235;BME280;6683;48.506;9.050;2023-09-30T00:57:44;98918.22;;;18.30;54.34
13235;BME280;6683;48.506;9.050;2023-09-30T01:00:47;98925.28;;;18.24;54.56
13235;BME280;6683;48.506;9.050;2023-09-30T01:03:51;98923.47;;;18.18;54.64
13235;BME280;6683;48.506;9.050;2023-09-30T01:06:53;98925.13;;;18.13;54.85
13235;BME280;6683;48.506;9.050;2023-09-30T01:09:58;98917.78;;;18.08;55.05
13235;BME280;6683;48.506;9.050;2023-09-30T01:13:00;98923.56;;;18.05;55.13
13235;BME280;6683;48.506;9.050;2023-09-30T01:16:05;98917.22;;;18.00;55.26
13235;BME280;6683;48.506;9.050;2023-09-30T01:19:09;98916.63;;;17.98;55.18
13235;BME280;6683;48.506;9.050;2023-09-30T01:22:12;98915.19;;;17.95;55.42
13235;BME280;6683;48.506;9.050;2023-09-30T01:25:15;98911.94;;;17.93;55.62
13235;BME280;6683;48.506;9.050;2023-09-30T01:28:17;98922.63;;;17.93;55.77
13235;BME280;6683;48.506;9.050;2023-09-30T01:31:19;98928.56;;;17.95;55.85
13235;BME280;6683;48.506;9.050;2023-09-30T01:34:21;98932.66;;;17.98;55.90
13235;BME280;6683;48.506;9.050;2023-09-30T01:37:27;98937.59;;;17.94;55.82
13235;BME280;6683;48.506;9.050;2023-09-30T01:40:29;98941.09;;;17.95;55.91
13235;BME280;6683;48.506;9.050;2023-09-30T01:43:31;98927.13;;;17.93;56.15
13235;BME280;6683;48.506;9.050;2023-09-30T01:46:35;98926.31;;;17.92;56.00
13235;BME280;6683;48.506;9.050;2023-09-30T01:49:40;98930.84;;;17.92;56.21
13235;BME280;6683;48.506;9.050;2023-09-30T01:52:43;98927.34;;;17.91;56.34
13235;BME280;6683;48.506;9.050;2023-09-30T01:55:45;98922.22;;;17.90;56.36
13235;BME280;6683;48.506;9.050;2023-09-30T01:58:48;98928.59;;;17.89;56.43
13235;BME280;6683;48.506;9.050;2023-09-30T02:01:50;98918.13;;;17.87;56.59
13235;BME280;6683;48.506;9.050;2023-09-30T02:04:52;98921.22;;;17.84;56.67
13235;BME280;6683;48.506;9.050;2023-09-30T02:07:56;98923.28;;;17.82;56.70
13235;BME280;6683;48.506;9.050;2023-09-30T02:10:58;98921.84;;;17.80;56.60
13235;BME280;6683;48.506;9.050;2023-09-30T02:14:02;98928.47;;;17.77;56.74
13235;BME280;6683;48.506;9.050;2023-09-30T02:17:04;98926.00;;;17.76;56.79
13235;BME280;6683;48.506;9.050;2023-09-30T02:20:08;98923.78;;;17.73;56.87
13235;BME280;6683;48.506;9.050;2023-09-30T02:23:15;98930.34;;;17.70;57.01
13235;BME280;6683;48.506;9.050;2023-09-30T02:26:17;98934.47;;;17.66;57.10
13235;BME280;6683;48.506;9.050;2023-09-30T02:29:19;98940.25;;;17.63;57.20
13235;BME280;6683;48.506;9.050;2023-09-30T02:32:21;98932.44;;;17.62;57.27
13235;BME280;6683;48.506;9.050;2023-09-30T02:35:24;98934.72;;;17.65;57.59
13235;BME280;6683;48.506;9.050;2023-09-30T02:38:28;98933.66;;;17.66;57.64
13235;BME280;6683;48.506;9.050;2023-09-30T02:41:30;98940.44;;;17.68;57.74
13235;BME280;6683;48.506;9.050;2023-09-30T02:44:32;98934.66;;;17.71;57.65
13235;BME280;6683;48.506;9.050;2023-09-30T02:47:34;98944.31;;;17.72;57.90
13235;BME280;6683;48.506;9.050;2023-09-30T02:50:42;98953.34;;;17.71;57.92
13235;BME280;6683;48.506;9.050;2023-09-30T02:53:47;98943.69;;;17.70;57.95
13235;BME280;6683;48.506;9.050;2023-09-30T02:56:49;98948.22;;;17.70;58.06
13235;BME280;6683;48.506;9.050;2023-09-30T02:59:53;98947.19;;;17.71;57.95
13235;BME280;6683;48.506;9.050;2023-09-30T03:02:55;98953.34;;;17.71;57.92
13235;BME280;6683;48.506;9.050;2023-09-30T03:05:57;98963.81;;;17.73;58.09
13235;BME280;6683;48.506;9.050;2023-09-30T03:09:02;98956.00;;;17.71;58.15
13235;BME280;6683;48.506;9.050;2023-09-30T03:12:06;98954.38;;;17.70;58.05
13235;BME280;6683;48.506;9.050;2023-09-30T03:15:10;98957.28;;;17.69;57.92
13235;BME280;6683;48.506;9.050;2023-09-30T03:18:12;98964.47;;;17.62;57.97
13235;BME280;6683;48.506;9.050;2023-09-30T03:21:14;98975.78;;;17.57;57.78
13235;BME280;6683;48.506;9.050;2023-09-30T03:24:18;98970.28;;;17.52;58.11
13235;BME280;6683;48.506;9.050;2023-09-30T03:27:21;98962.06;;;17.47;58.11
13235;BME280;6683;48.506;9.050;2023-09-30T03:30:24;98966.19;;;17.43;58.04
13235;BME280;6683;48.506;9.050;2023-09-30T03:33:26;98974.22;;;17.36;57.91
13235;BME280;6683;48.506;9.050;2023-09-30T03:36:28;98976.88;;;17.30;58.14
13235;BME280;6683;48.506;9.050;2023-09-30T03:39:31;98971.56;;;17.23;58.13
13235;BME280;6683;48.506;9.050;2023-09-30T03:42:33;98968.91;;;17.17;57.94
13235;BME280;6683;48.506;9.050;2023-09-30T03:45:35;98954.78;;;17.10;57.89
13235;BME280;6683;48.506;9.050;2023-09-30T03:48:40;98954.81;;;17.03;57.96
13235;BME280;6683;48.506;9.050;2023-09-30T03:51:42;98949.25;;;16.98;58.16
13235;BME280;6683;48.506;9.050;2023-09-30T03:54:45;98943.97;;;16.92;58.19
13235;BME280;6683;48.506;9.050;2023-09-30T03:57:49;98942.72;;;16.88;58.33
13235;BME280;6683;48.506;9.050;2023-09-30T04:00:51;98938.03;;;16.83;58.50
13235;BME280;6683;48.506;9.050;2023-09-30T04:03:53;98942.75;;;16.81;58.62
13235;BME280;6683;48.506;9.050;2023-09-30T04:06:57;98950.34;;;16.77;58.74
13235;BME280;6683;48.506;9.050;2023-09-30T04:10:00;98952.59;;;16.74;58.73
13235;BME280;6683;48.506;9.050;2023-09-30T04:13:03;98951.16;;;16.71;58.82
13235;BME280;6683;48.506;9.050;2023-09-30T04:16:05;98956.31;;;16.66;58.72
13235;BME280;6683;48.506;9.050;2023-09-30T04:19:07;98955.28;;;16.61;58.69
13235;BME280;6683;48.506;9.050;2023-09-30T04:22:11;98965.75;;;16.56;58.86
13235;BME280;6683;48.506;9.050;2023-09-30T04:25:15;98966.16;;;16.53;58.94
13235;BME280;6683;48.506;9.050;2023-09-30T04:28:18;98963.25;;;16.48;58.67
13235;BME280;6683;48.506;9.050;2023-09-30T04:31:21;98965.28;;;16.46;58.70
13235;BME280;6683;48.506;9.050;2023-09-30T04:34:24;98972.25;;;16.40;58.77
13235;BME280;6683;48.506;9.050;2023-09-30T04:37:28;98974.75;;;16.35;58.97
13235;BME280;6683;48.506;9.050;2023-09-30T04:40:31;98975.97;;;16.33;59.07
13235;BME280;6683;48.506;9.050;2023-09-30T04:43:34;98970.00;;;16.31;59.07
13235;BME280;6683;48.506;9.050;2023-09-30T04:46:38;98990.50;;;16.30;59.36
13235;BME280;6683;48.506;9.050;2023-09-30T04:49:41;98995.00;;;16.30;59.42
13235;BME280;6683;48.506;9.050;2023-09-30T04:52:44;98991.50;;;16.29;59.52
13235;BME280;6683;48.506;9.050;2023-09-30T04:55:47;98997.06;;;16.28;59.58
13235;BME280;6683;48.506;9.050;2023-09-30T04:58:50;98997.25;;;16.26;59.68
13235;BME280;6683;48.506;9.050;2023-09-30T05:01:52;99004.22;;;16.27;59.78
13235;BME280;6683;48.506;9.050;2023-09-30T05:04:54;98996.22;;;16.27;59.80
13235;BME280;6683;48.506;9.050;2023-09-30T05:07:56;99000.13;;;16.31;59.95
13235;BME280;6683;48.506;9.050;2023-09-30T05:11:00;99002.19;;;16.36;60.02
13235;BME280;6683;48.506;9.050;2023-09-30T05:14:02;99005.91;;;16.41;60.23
13235;BME280;6683;48.506;9.050;2023-09-30T05:17:06;99010.59;;;16.46;60.22
13235;BME280;6683;48.506;9.050;2023-09-30T05:20:09;99017.22;;;16.50;60.17
13235;BME280;6683;48.506;9.050;2023-09-30T05:23:13;99029.09;;;16.54;60.05
13235;BME280;6683;48.506;9.050;2023-09-30T05:26:16;99031.13;;;16.58;60.25
13235;BME280;6683;48.506;9.050;2023-09-30T05:29:18;99028.06;;;16.61;60.26
13235;BME280;6683;48.506;9.050;2023-09-30T05:32:21;99021.53;;;16.64;60.54
13235;BME280;6683;48.506;9.050;2023-09-30T05:35:24;99025.19;;;16.69;60.39
13235;BME280;6683;48.506;9.050;2023-09-30T05:38:26;99015.97;;;16.72;60.37
13235;BME280;6683;48.506;9.050;2023-09-30T05:41:29;99012.09;;;16.74;60.41
13235;BME280;6683;48.506;9.050;2023-09-30T05:44:31;99007.16;;;16.78;60.38
13235;BME280;6683;48.506;9.050;2023-09-30T05:47:33;99002.22;;;16.82;60.37
13235;BME280;6683;48.506;9.050;2023-09-30T05:50:35;99001.81;;;16.85;60.43
13235;BME280;6683;48.506;9.050;2023-09-30T05:53:39;99007.16;;;16.85;60.41
13235;BME280;6683;48.506;9.050;2023-09-30T05:56:43;99010.44;;;16.87;60.39
13235;BME280;6683;48.506;9.050;2023-09-30T05:59:45;98995.25;;;16.87;60.31
13235;BME280;6683;48.506;9.050;2023-09-30T06:02:48;99002.84;;;16.84;60.29
13235;BME280;6683;48.506;9.050;2023-09-30T06:05:52;99011.88;;;16.83;60.46
13235;BME280;6683;48.506;9.050;2023-09-30T06:08:54;99007.38;;;16.83;60.38
13235;BME280;6683;48.506;9.050;2023-09-30T06:11:59;99012.50;;;16.85;60.58
13235;BME280;6683;48.506;9.050;2023-09-30T06:15:05;99019.44;;;16.86;60.51
13235;BME280;6683;48.506;9.050;2023-09-30T06:18:08;99014.09;;;16.86;60.39
13235;BME280;6683;48.506;9.050;2023-09-30T06:21:13;99014.09;;;16.86;60.61
13235;BME280;6683;48.506;9.050;2023-09-30T06:24:18;99028.28;;;16.86;60.49
13235;BME280;6683;48.506;9.050;2023-09-30T06:27:22;99039.16;;;16.85;60.35
13235;BME280;6683;48.506;9.050;2023-09-30T06:30:25;99045.50;;;16.84;60.39
13235;BME280;6683;48.506;9.050;2023-09-30T06:33:30;99043.66;;;16.84;60.25
13235;BME280;6683;48.506;9.050;2023-09-30T06:36:32;99048.78;;;16.86;60.46
13235;BME280;6683;48.506;9.050;2023-09-30T06:39:34;99065.41;;;16.88;60.48
13235;BME280;6683;48.506;9.050;2023-09-30T06:42:38;99057.22;;;16.89;60.51
13235;BME280;6683;48.506;9.050;2023-09-30T06:45:41;99061.09;;;16.93;60.77
13235;BME280;6683;48.506;9.050;2023-09-30T06:48:44;99075.66;;;16.97;60.67
13235;BME280;6683;48.506;9.050;2023-09-30T06:51:46;99083.25;;;17.00;60.63
13235;BME280;6683;48.506;9.050;2023-09-30T06:54:48;99090.22;;;17.01;60.53
13235;BME280;6683;48.506;9.050;2023-09-30T06:57:51;99087.34;;;17.03;60.70
13235;BME280;6683;48.506;9.050;2023-09-30T07:00:54;99095.56;;;17.08;60.72
13235;BME280;6683;48.506;9.050;2023-09-30T07:03:56;99098.44;;;17.13;60.79
13235;BME280;6683;48.506;9.050;2023-09-30T07:06:58;99095.56;;;17.21;60.93
13235;BME280;6683;48.506;9.050;2023-09-30T07:10:00;99092.69;;;17.29;61.04
13235;BME280;6683;48.506;9.050;2023-09-30T07:13:04;99091.22;;;17.39;60.93
13235;BME280;6683;48.506;9.050;2023-09-30T07:16:07;99096.13;;;17.49;61.09
13235;BME280;6683;48.506;9.050;2023-09-30T07:19:09;99081.34;;;17.60;61.03
13235;BME280;6683;48.506;9.050;2023-09-30T07:22:11;99082.78;;;17.69;61.23
13235;BME280;6683;48.506;9.050;2023-09-30T07:25:14;99080.25;;;17.80;61.13
13235;BME280;6683;48.506;9.050;2023-09-30T07:28:18;99087.03;;;17.89;60.93
13235;BME280;6683;48.506;9.050;2023-09-30T07:31:21;99090.88;;;18.00;60.72
13235;BME280;6683;48.506;9.050;2023-09-30T07:34:24;99095.38;;;18.06;60.80
13235;BME280;6683;48.506;9.050;2023-09-30T07:37:26;99096.38;;;18.11;60.46
13235;BME280;6683;48.506;9.050;2023-09-30T07:40:28;99104.59;;;18.16;60.56
13235;BME280;6683;48.506;9.050;2023-09-30T07:43:31;99118.94;;;18.22;60.41
13235;BME280;6683;48.506;9.050;2023-09-30T07:46:34;99115.84;;;18.25;60.09
13235;BME280;6683;48.506;9.050;2023-09-30T07:49:39;99121.59;;;18.28;60.25
13235;BME280;6683;48.506;9.050;2023-09-30T07:52:41;99113.53;;;18.35;60.31
13235;BME280;6683;48.506;9.050;2023-09-30T07:55:43;99104.66;;;18.41;60.47
13235;BME280;6683;48.506;9.050;2023-09-30T07:58:46;99102.41;;;18.45;60.49
13235;BME280;6683;48.506;9.050;2023-09-30T08:01:49;99113.88;;;18.52;60.48
13235;BME280;6683;48.506;9.050;2023-09-30T08:04:51;99110.13;;;18.59;60.46
13235;BME280;6683;48.506;9.050;2023-09-30T08:07:56;99119.53;;;18.68;60.26
13235;BME280;6683;48.506;9.050;2023-09-30T08:10:58;99116.97;;;18.80;60.40
13235;BME280;6683;48.506;9.050;2023-09-30T08:14:01;99108.69;;;18.88;60.24
13235;BME280;6683;48.506;9.050;2023-09-30T08:17:07;99106.16;;;18.99;60.30
13235;BME280;6683;48.506;9.050;2023-09-30T08:20:10;99085.88;;;19.10;60.15
13235;BME280;6683;48.506;9.050;2023-09-30T08:23:12;99092.75;;;19.24;59.98
13235;BME280;6683;48.506;9.050;2023-09-30T08:26:14;99087.03;;;19.45;59.87
13235;BME280;6683;48.506;9.050;2023-09-30T08:29:17;99090.31;;;19.65;59.61
13235;BME280;6683;48.506;9.050;2023-09-30T08:32:20;99094.63;;;19.84;59.28
13235;BME280;6683;48.506;9.050;2023-09-30T08:35:22;99099.16;;;20.02;59.19
13235;BME280;6683;48.506;9.050;2023-09-30T08:38:24;99090.44;;;20.25;58.98
13235;BME280;6683;48.506;9.050;2023-09-30T08:41:31;99103.38;;;20.46;58.70
13235;BME280;6683;48.506;9.050;2023-09-30T08:44:36;99098.09;;;20.69;58.33
13235;BME280;6683;48.506;9.050;2023-09-30T08:47:40;99102.78;;;20.97;58.20
13235;BME280;6683;48.506;9.050;2023-09-30T08:50:43;99105.34;;;21.21;57.82
13235;BME280;6683;48.506;9.050;2023-09-30T08:53:45;99100.44;;;21.41;56.94
13235;BME280;6683;48.506;9.050;2023-09-30T08:56:48;99092.59;;;21.63;56.68
13235;BME280;6683;48.506;9.050;2023-09-30T08:59:53;99094.91;;;21.83;56.52
13235;BME280;6683;48.506;9.050;2023-09-30T09:02:55;99102.94;;;22.06;56.04
13235;BME280;6683;48.506;9.050;2023-09-30T09:05:58;99093.66;;;22.25;55.90
13235;BME280;6683;48.506;9.050;2023-09-30T09:09:13;99094.84;;;22.46;55.38
13235;BME280;6683;48.506;9.050;2023-09-30T09:12:20;99087.41;;;22.64;54.57
13235;BME280;6683;48.506;9.050;2023-09-30T09:15:28;99083.84;;;22.75;54.27
13235;BME280;6683;48.506;9.050;2023-09-30T09:18:34;99097.59;;;22.90;54.24
13235;BME280;6683;48.506;9.050;2023-09-30T09:21:36;99087.84;;;23.06;53.76
13235;BME280;6683;48.506;9.050;2023-09-30T09:24:39;99097.31;;;23.25;53.15
13235;BME280;6683;48.506;9.050;2023-09-30T09:27:43;99089.56;;;23.45;52.99
13235;BME280;6683;48.506;9.050;2023-09-30T09:30:46;99087.66;;;23.62;52.53
13235;BME280;6683;48.506;9.050;2023-09-30T09:33:49;99084.06;;;23.73;51.91
13235;BME280;6683;48.506;9.050;2023-09-30T09:36:52;99083.66;;;23.87;51.70
13235;BME280;6683;48.506;9.050;2023-09-30T09:39:55;99076.03;;;24.00;51.30
13235;BME280;6683;48.506;9.050;2023-09-30T09:42:59;99073.59;;;24.20;51.03
13235;BME280;6683;48.506;9.050;2023-09-30T09:46:08;99065.72;;;24.40;50.64
13235;BME280;6683;48.506;9.050;2023-09-30T09:49:10;99075.63;;;24.61;50.02
13235;BME280;6683;48.506;9.050;2023-09-30T09:52:14;99060.63;;;24.71;49.58
13235;BME280;6683;48.506;9.050;2023-09-30T09:55:18;99056.41;;;24.80;49.29
13235;BME280;6683;48.506;9.050;2023-09-30T09:58:23;99048.41;;;24.90;49.12
13235;BME280;6683;48.506;9.050;2023-09-30T10:01:28;99053.38;;;25.08;48.89
13235;BME280;6683;48.506;9.050;2023-09-30T10:04:30;99053.69;;;25.11;48.65
13235;BME280;6683;48.506;9.050;2023-09-30T10:07:36;99051.00;;;25.11;48.54
13235;BME280;6683;48.506;9.050;2023-09-30T10:10:39;99046.50;;;25.22;48.34
13235;BME280;6683;48.506;9.050;2023-09-30T10:13:53;99047.31;;;25.27;48.16
13235;BME280;6683;48.506;9.050;2023-09-30T10:16:57;99042.78;;;25.38;47.94
13235;BME280;6683;48.506;9.050;2023-09-30T10:20:07;99039.06;;;25.44;47.58
13235;BME280;6683;48.506;9.050;2023-09-30T10:23:26;99038.13;;;25.65;47.57
13235;BME280;6683;48.506;9.050;2023-09-30T10:26:33;99037.41;;;25.90;47.09
13235;BME280;6683;48.506;9.050;2023-09-30T10:29:40;99039.41;;;26.09;45.94
13235;BME280;6683;48.506;9.050;2023-09-30T10:33:10;99040.50;;;26.19;45.49
13235;BME280;6683;48.506;9.050;2023-09-30T10:36:12;99046.47;;;26.21;45.65
13235;BME280;6683;48.506;9.050;2023-09-30T10:39:14;99045.69;;;26.30;45.22
13235;BME280;6683;48.506;9.050;2023-09-30T10:42:46;99028.91;;;26.33;45.46
13235;BME280;6683;48.506;9.050;2023-09-30T10:45:50;99030.28;;;26.51;44.74
13235;BME280;6683;48.506;9.050;2023-09-30T10:48:54;99029.25;;;26.77;44.12
13235;BME280;6683;48.506;9.050;2023-09-30T10:51:57;99027.88;;;27.00;43.34
13235;BME280;6683;48.506;9.050;2023-09-30T10:55:05;99021.66;;;27.09;43.57
13235;BME280;6683;48.506;9.050;2023-09-30T10:58:08;99022.69;;;27.23;42.58
13235;BME280;6683;48.506;9.050;2023-09-30T11:01:10;99011.88;;;27.28;42.47
13235;BME280;6683;48.506;9.050;2023-09-30T11:04:15;99008.63;;;27.26;42.02
13235;BME280;6683;48.506;9.050;2023-09-30T11:07:23;99006.97;;;27.35;41.52
13235;BME280;6683;48.506;9.050;2023-09-30T11:10:26;99003.16;;;27.51;41.47
13235;BME280;6683;48.506;9.050;2023-09-30T11:13:32;98991.44;;;27.61;40.61
13235;BME280;6683;48.506;9.050;2023-09-30T11:16:42;98982.19;;;27.62;40.23
13235;BME280;6683;48.506;9.050;2023-09-30T11:19:48;98983.00;;;27.67;40.16
13235;BME280;6683;48.506;9.050;2023-09-30T11:22:50;98973.41;;;27.85;39.55
13235;BME280;6683;48.506;9.050;2023-09-30T11:25:54;98978.72;;;28.10;39.44
13235;BME280;6683;48.506;9.050;2023-09-30T11:29:05;98981.78;;;28.42;38.85
13235;BME280;6683;48.506;9.050;2023-09-30T11:32:07;98979.91;;;28.77;38.64
13235;BME280;6683;48.506;9.050;2023-09-30T11:35:22;98980.75;;;29.06;37.50
13235;BME280;6683;48.506;9.050;2023-09-30T11:38:25;98977.09;;;29.20;37.28
13235;BME280;6683;48.506;9.050;2023-09-30T11:41:33;98969.97;;;29.25;37.19
13235;BME280;6683;48.506;9.050;2023-09-30T11:44:44;98963.63;;;29.29;36.35
13235;BME280;6683;48.506;9.050;2023-09-30T11:47:48;98963.38;;;29.31;36.26
13235;BME280;6683;48.506;9.050;2023-09-30T11:50:52;98966.88;;;29.31;36.19
13235;BME280;6683;48.506;9.050;2023-09-30T11:53:56;98969.56;;;29.36;35.73
13235;BME280;6683;48.506;9.050;2023-09-30T11:57:00;98966.47;;;29.43;35.56
13235;BME280;6683;48.506;9.050;2023-09-30T12:00:05;98964.47;;;29.53;34.80
13235;BME280;6683;48.506;9.050;2023-09-30T12:03:14;98958.00;;;29.68;34.72
13235;BME280;6683;48.506;9.050;2023-09-30T12:06:17;98961.31;;;29.65;33.85
13235;BME280;6683;48.506;9.050;2023-09-30T12:09:19;98959.06;;;29.48;33.87
13235;BME280;6683;48.506;9.050;2023-09-30T12:12:27;98957.97;;;29.26;34.39
13235;BME280;6683;48.506;9.050;2023-09-30T12:15:29;98959.78;;;29.06;34.12
13235;BME280;6683;48.506;9.050;2023-09-30T12:18:31;98963.66;;;29.00;34.06
13235;BME280;6683;48.506;9.050;2023-09-30T12:21:34;98955.41;;;28.82;33.96
13235;BME280;6683;48.506;9.050;2023-09-30T12:24:37;98962.47;;;28.49;33.84
13235;BME280;6683;48.506;9.050;2023-09-30T12:27:40;98963.78;;;28.18;34.03
13235;BME280;6683;48.506;9.050;2023-09-30T12:30:42;98959.84;;;27.85;34.46
13235;BME280;6683;48.506;9.050;2023-09-30T12:33:44;98964.91;;;27.53;35.13
13235;BME280;6683;48.506;9.050;2023-09-30T12:36:52;98951.66;;;27.31;34.96
13235;BME280;6683;48.506;9.050;2023-09-30T12:39:54;98959.56;;;27.18;35.38
13235;BME280;6683;48.506;9.050;2023-09-30T12:42:56;98962.59;;;27.01;35.01
13235;BME280;6683;48.506;9.050;2023-09-30T12:46:00;98958.25;;;26.85;34.99
13235;BME280;6683;48.506;9.050;2023-09-30T12:49:03;98962.31;;;26.67;35.28
13235;BME280;6683;48.506;9.050;2023-09-30T12:52:06;98955.81;;;26.53;35.35
13235;BME280;6683;48.506;9.050;2023-09-30T12:55:09;98943.09;;;26.39;35.55
13235;BME280;6683;48.506;9.050;2023-09-30T12:58:11;98949.56;;;26.23;35.33
13235;BME280;6683;48.506;9.050;2023-09-30T13:01:13;98949.56;;;26.12;35.47
13235;BME280;6683;48.506;9.050;2023-09-30T13:04:16;98944.91;;;26.03;35.62
13235;BME280;6683;48.506;9.050;2023-09-30T13:07:20;98944.06;;;25.97;35.78
13235;BME280;6683;48.506;9.050;2023-09-30T13:10:23;98942.75;;;25.95;35.79
13235;BME280;6683;48.506;9.050;2023-09-30T13:13:25;98946.25;;;25.90;35.92
13235;BME280;6683;48.506;9.050;2023-09-30T13:16:27;98938.09;;;25.85;36.13
13235;BME280;6683;48.506;9.050;2023-09-30T13:19:29;98944.06;;;25.82;35.79
13235;BME280;6683;48.506;9.050;2023-09-30T13:22:35;98942.69;;;25.80;35.73
13235;BME280;6683;48.506;9.050;2023-09-30T13:25:38;98931.88;;;25.80;35.92
13235;BME280;6683;48.506;9.050;2023-09-30T13:28:40;98923.50;;;25.76;35.92
13235;BME280;6683;48.506;9.050;2023-09-30T13:31:42;98909.94;;;25.71;35.97
13235;BME280;6683;48.506;9.050;2023-09-30T13:34:45;98906.16;;;25.67;36.29
13235;BME280;6683;48.506;9.050;2023-09-30T13:37:50;98905.31;;;25.67;35.99
13235;BME280;6683;48.506;9.050;2023-09-30T13:40:52;98896.13;;;25.63;36.20
13235;BME280;6683;48.506;9.050;2023-09-30T13:43:54;98899.88;;;25.62;36.41
13235;BME280;6683;48.506;9.050;2023-09-30T13:46:57;98899.88;;;25.62;36.28
13235;BME280;6683;48.506;9.050;2023-09-30T13:49:59;98896.13;;;25.63;36.16
13235;BME280;6683;48.506;9.050;2023-09-30T13:53:04;98894.47;;;25.62;36.31
13235;BME280;6683;48.506;9.050;2023-09-30T13:56:07;98893.69;;;25.61;36.48
13235;BME280;6683;48.506;9.050;2023-09-30T13:59:09;98899.88;;;25.62;36.28
13235;BME280;6683;48.506;9.050;2023-09-30T14:02:11;98891.78;;;25.62;36.00
13235;BME280;6683;48.506;9.050;2023-09-30T14:05:13;98891.00;;;25.61;35.83
13235;BME280;6683;48.506;9.050;2023-09-30T14:08:16;98903.97;;;25.59;36.00
13235;BME280;6683;48.506;9.050;2023-09-30T14:11:19;98908.28;;;25.60;35.99
13235;BME280;6683;48.506;9.050;2023-09-30T14:14:21;98902.31;;;25.58;35.77
13235;BME280;6683;48.506;9.050;2023-09-30T14:17:23;98911.78;;;25.56;35.64
13235;BME280;6683;48.506;9.050;2023-09-30T14:20:26;98907.72;;;25.53;35.73
13235;BME280;6683;48.506;9.050;2023-09-30T14:23:29;98903.66;;;25.51;35.50
13235;BME280;6683;48.506;9.050;2023-09-30T14:26:31;98899.88;;;25.47;35.71
13235;BME280;6683;48.506;9.050;2023-09-30T14:29:33;98906.53;;;25.39;35.61
13235;BME280;6683;48.506;9.050;2023-09-30T14:32:35;98903.84;;;25.34;35.61
13235;BME280;6683;48.506;9.050;2023-09-30T14:35:38;98894.63;;;25.30;35.54
13235;BME280;6683;48.506;9.050;2023-09-30T14:38:41;98890.84;;;25.26;35.30
13235;BME280;6683;48.506;9.050;2023-09-30T14:41:44;98888.91;;;25.26;35.24
13235;BME280;6683;48.506;9.050;2023-09-30T14:44:46;98890.56;;;25.32;35.15
13235;BME280;6683;48.506;9.050;2023-09-30T14:47:48;98874.94;;;25.34;35.15
13235;BME280;6683;48.506;9.050;2023-09-30T14:50:51;98881.94;;;25.35;35.23
13235;BME280;6683;48.506;9.050;2023-09-30T14:53:54;98869.78;;;25.38;35.20
13235;BME280;6683;48.506;9.050;2023-09-30T14:56:56;98862.22;;;25.40;35.42
13235;BME280;6683;48.506;9.050;2023-09-30T14:59:58;98873.63;;;25.42;35.26
13235;BME280;6683;48.506;9.050;2023-09-30T15:03:01;98873.63;;;25.42;34.98
13235;BME280;6683;48.506;9.050;2023-09-30T15:06:03;98873.88;;;25.41;35.16
13235;BME280;6683;48.506;9.050;2023-09-30T15:09:07;98868.16;;;25.37;34.98
13235;BME280;6683;48.506;9.050;2023-09-30T15:12:12;98870.06;;;25.36;35.36
13235;BME280;6683;48.506;9.050;2023-09-30T15:15:14;98873.56;;;25.32;35.46
13235;BME280;6683;48.506;9.050;2023-09-30T15:18:16;98873.00;;;25.30;35.44
13235;BME280;6683;48.506;9.050;2023-09-30T15:21:18;98880.31;;;25.29;35.77
13235;BME280;6683;48.506;9.050;2023-09-30T15:24:22;98880.56;;;25.28;36.04
13235;BME280;6683;48.506;9.050;2023-09-30T15:27:24;98884.63;;;25.25;35.96
13235;BME280;6683;48.506;9.050;2023-09-30T15:30:27;98880.00;;;25.21;36.23
13235;BME280;6683;48.506;9.050;2023-09-30T15:33:30;98881.59;;;25.17;36.37
13235;BME280;6683;48.506;9.050;2023-09-30T15:36:32;98882.94;;;25.14;36.30
13235;BME280;6683;48.506;9.050;2023-09-30T15:39:39;98877.25;;;25.11;36.60
13235;BME280;6683;48.506;9.050;2023-09-30T15:42:41;98886.41;;;25.10;36.49
13235;BME280;6683;48.506;9.050;2023-09-30T15:45:47;98877.22;;;25.06;36.42
13235;BME280;6683;48.506;9.050;2023-09-30T15:48:52;98875.06;;;25.03;36.42
13235;BME280;6683;48.506;9.050;2023-09-30T15:51:54;98888.53;;;24.98;36.58
13235;BME280;6683;48.506;9.050;2023-09-30T15:54:57;98887.69;;;24.92;36.70
13235;BME280;6683;48.506;9.050;2023-09-30T15:58:01;98884.13;;;24.87;36.94
13235;BME280;6683;48.506;9.050;2023-09-30T16:01:03;98887.38;;;24.84;36.91
13235;BME280;6683;48.506;9.050;2023-09-30T16:04:05;98887.88;;;24.81;36.93
13235;BME280;6683;48.506;9.050;2023-09-30T16:07:07;98884.91;;;24.77;36.76
13235;BME280;6683;48.506;9.050;2023-09-30T16:10:11;98892.72;;;24.74;37.06
13235;BME280;6683;48.506;9.050;2023-09-30T16:13:14;98892.13;;;24.72;37.18
13235;BME280;6683;48.506;9.050;2023-09-30T16:16:16;98887.78;;;24.71;37.14
13235;BME280;6683;48.506;9.050;2023-09-30T16:19:18;98892.09;;;24.67;37.22
13235;BME280;6683;48.506;9.050;2023-09-30T16:22:20;98894.25;;;24.65;37.32
13235;BME280;6683;48.506;9.050;2023-09-30T16:25:24;98896.34;;;24.57;37.51